Newnan, GA (30263)

7:52 AM EST on January 24, 2017 (GMT -0500)
Featherston Heights | | Change Station

Elev 1017 ft 33.39 °N, 84.81 °W | Updated 3 seconds ago

Partly Cloudy
Partly Cloudy
43.9 °F
Feels Like 41 °F
N
4.7
Wind Variable Wind from South

Today
High -- | Low -- °F
--% Chance of Precip.
Yesterday
High -- | Low -- °F
Precip. -- in
Pressure 29.81 in
Visibility 10.0 miles
Clouds Overcast 1700 ft
Windchill 41 °F
Dew Point 41 °F
Humidity 91%
Rainfall 0.00 in
Snow Depth Not available.
7:39 AM 6:03 PM
Waning Crescent, 12% visible
METAR KFFC 241153Z AUTO 32014G20KT 10SM OVC017 08/04 A2980 RMK AO2 SLP093 70003 T00780044 10100 20078 53010
Pressure 29.81 in
Visibility 10.0 miles
Clouds Overcast 1700 ft
Windchill 41 °F
Dew Point 41 °F
Humidity 91%
Rainfall 0.00 in
Snow Depth Not available.
7:39 AM 6:03 PM
Waning Crescent, 12% visible
METAR KFFC 241153Z AUTO 32014G20KT 10SM OVC017 08/04 A2980 RMK AO2 SLP093 70003 T00780044 10100 20078 53010

Get Your Daily Forecast Email!

Thanks for signing up!

Be on the lookout for a verification email in your inbox.

You'll start receiving the daily forecast at 8 AM.

×

10-Day Weather Forecast

Almanac

Astronomy

Jan. 24, 2017 Rise Set
Actual Time
Civil Twilight
Nautical Twilight
Astronomical Twilight
Moon
Length of Visible Light
Length of Day
Tomorrow will be .
, % of the Moon is Illuminated

Today's Extremes

State Highs State Lows

Community

WunderPhotos

Upload Photos

1,962,540 photos uploaded!

WunderBlog® & News

Nearby

Air Quality

  Air Quality AQ Index Pollutant
Not available.

Snow Depth

Station Depth Elevation

Earthquake Activity

City Distance Mag. Time & Date
Minimum magnitude displayed is 2.5.

Coastal Water Temperatures

Place Temperature

Stations

Nearby Weather Stations

Station Location Temp. Windchill Dew Point Humidity Wind Precip. Elev Updated Type
                   

Watches & Warnings

There are currently no watches in effect.